Island Tugger — CFH8596 — position and weather

sailwx.info

Track history (hours):
 
Tides and Currents Weather Stations Pressure Air Temp Water Temp Dewpoint Dewpoint Depression Visibility Wind Speed Wind Dir Waves Ship Positions

Island Tugger

Last reported at 2017-Dec-15 17:37 UTC. Time now 2017-Dec-16 18:59 UTC.
Position N 49°17' W 122°58'.

Length 32 m; draft 4.3 m.

Type: Tug. MMSI: 316015269.

Date/timePositionNaut miles runAvg speedWind from/ knotsBaromVisibWave heightAir tempDewpointWater temp
2017-Dec-15 17:37N 49°17' W 122°58'0 0.1
2017-Dec-15 17:30N 49°17' W 122°58'0 0.0
2017-Dec-15 17:00N 49°17' W 122°58'0 0.0
2017-Dec-15 16:30N 49°17' W 122°58'0 0.0
2017-Dec-15 16:00N 49°17' W 122°58'0 0.1
2017-Dec-15 15:31N 49°17' W 122°58'1 1.0
2017-Dec-15 15:00N 49°18' W 122°59'3 5.8
2017-Dec-15 14:30N 49°18' W 123°03'4 7.4
2017-Dec-15 14:00N 49°19' W 123°09'3 6.0
2017-Dec-15 13:30N 49°19' W 123°13'2 3.6
2017-Dec-15 13:00N 49°18' W 123°16'2 3.6
2017-Dec-15 12:30N 49°17' W 123°18'2 4.6
2017-Dec-15 12:00N 49°14' W 123°18'4 7.1
2017-Dec-15 11:30N 49°11' W 123°19'3 6.9
2017-Dec-15 11:00N 49°07' W 123°20'4 6.6
2017-Dec-15 10:25N 49°04' W 123°19'3 8.1
2017-Dec-15 10:00N 49°01' W 123°15'4 8.1
2017-Dec-15 09:29N 48°59' W 123°10'7 7.7
2017-Dec-15 08:36N 48°54' W 123°03'1 8.0
2017-Dec-15 08:26N 48°53' W 123°01'12 7.8
2017-Dec-15 06:50N 48°46' W 122°46'3 7.5
2017-Dec-15 06:29N 48°43' W 122°44'3 7.2
2017-Dec-15 06:00N 48°40' W 122°42'3 6.3
2017-Dec-15 05:29N 48°37' W 122°45'3 5.4
2017-Dec-15 05:00N 48°35' W 122°45'2 4.6
2017-Dec-15 04:30N 48°32' W 122°45'2 4.6
2017-Dec-15 04:00N 48°30' W 122°44'7 4.5
2017-Dec-15 02:30N 48°23' W 122°44'55 6.9
2017-Dec-14 18:31N 47°30' W 122°25'3 6.8
2017-Dec-14 18:00N 47°27' W 122°23'4 7.1
2017-Dec-14 17:30N 47°24' W 122°21'3 6.3
2017-Dec-14 17:00N 47°21' W 122°24'4 7.1
2017-Dec-14 16:30N 47°18' W 122°27'2 0.2
2017-Dec-14 05:24N 47°17' W 122°25'1 2.3
2017-Dec-14 05:00N 47°17' W 122°26'0 0.9
2017-Dec-14 04:30N 47°17' W 122°27'0 0.5
2017-Dec-14 04:00N 47°17' W 122°27'0 0.4
2017-Dec-14 03:30N 47°17' W 122°27'0 0.3
2017-Dec-14 03:00N 47°17' W 122°28'0 0.3
2017-Dec-14 02:30N 47°17' W 122°28'0 0.4
2017-Dec-14 02:00N 47°17' W 122°28'0 0.4
2017-Dec-14 01:30N 47°18' W 122°28'0 1.0
2017-Dec-14 01:00N 47°18' W 122°28'2 4.5
2017-Dec-14 00:30N 47°20' W 122°27'3 6.7
2017-Dec-14 00:00N 47°22' W 122°23'3 5.2
2017-Dec-13 23:30N 47°25' W 122°23'3 6.7
2017-Dec-13 23:00N 47°28' W 122°25'3 6.6
2017-Dec-13 22:30N 47°31' W 122°26'3 6.9
2017-Dec-13 22:00N 47°34' W 122°28'3 6.8
2017-Dec-13 21:30N 47°38' W 122°28'3 6.9
2017-Dec-13 21:00N 47°41' W 122°28'4 7.1
2017-Dec-13 20:30N 47°45' W 122°27'3 7.0
2017-Dec-13 20:00N 47°48' W 122°28'3 6.6
2017-Dec-13 19:30N 47°51' W 122°29'3 6.7
2017-Dec-13 19:00N 47°55' W 122°30'4 7.6
2017-Dec-13 18:30N 47°57' W 122°35'16 8.4
2017-Dec-13 16:39N 48°10' W 122°47'2 8.3
2017-Dec-13 16:23N 48°12' W 122°49'3 7.4
2017-Dec-13 15:59N 48°15' W 122°49'4 8.0
2017-Dec-13 15:29N 48°19' W 122°47'4 7.9
2017-Dec-13 14:55N 48°23' W 122°45'3 7.9
2017-Dec-13 14:30N 48°27' W 122°45'4 8.4
2017-Dec-13 14:00N 48°31' W 122°45'4 8.7
2017-Dec-13 13:30N 48°35' W 122°45'4 8.3
2017-Dec-13 13:00N 48°39' W 122°44'4 7.9
2017-Dec-13 12:30N 48°43' W 122°45'4 7.6
2017-Dec-13 11:59N 48°46' W 122°50'4 7.7
2017-Dec-13 11:30N 48°48' W 122°54'4 7.5
2017-Dec-13 10:59N 48°50' W 122°59'4 6.9
2017-Dec-13 10:28N 48°52' W 123°04'4 7.7
2017-Dec-13 09:59N 48°54' W 123°08'4 7.8
2017-Dec-13 09:28N 48°57' W 123°12'4 7.5
2017-Dec-13 09:00N 48°59' W 123°17'4 7.2
2017-Dec-13 08:30N 49°01' W 123°21'4 7.1
2017-Dec-13 08:00N 49°04' W 123°24'4 7.8
2017-Dec-13 07:29N 49°08' W 123°23'4 7.9
2017-Dec-13 07:00N 49°12' W 123°22'4 7.6
2017-Dec-13 06:30N 49°15' W 123°21'3 6.9
2017-Dec-13 06:00N 49°18' W 123°18'4 7.6
2017-Dec-13 05:30N 49°19' W 123°12'4 7.1
2017-Dec-13 05:00N 49°18' W 123°07'4 8.1
2017-Dec-13 04:30N 49°18' W 123°00'0 0.3
2017-Dec-13 04:00N 49°18' W 123°00'1 2.3
2017-Dec-13 03:29N 49°17' W 122°58'0 0.0
2017-Dec-13 03:00N 49°17' W 122°58'0 0.0
2017-Dec-13 02:30N 49°17' W 122°58'0 0.0
2017-Dec-13 02:00N 49°17' W 122°58'0 0.0
2017-Dec-13 01:30N 49°17' W 122°58'0 0.0
2017-Dec-13 00:59N 49°17' W 122°58'0 0.0
2017-Dec-13 00:29N 49°17' W 122°58'2 3.6
2017-Dec-13 00:00N 49°18' W 123°01'4 7.9
2017-Dec-12 23:30N 49°18' W 123°07'0 0.0
2017-Dec-12 23:00N 49°18' W 123°07'0 0.0
2017-Dec-12 22:30N 49°18' W 123°07'0 0.0
2017-Dec-12 22:00N 49°18' W 123°07'0 0.0
2017-Dec-12 21:30N 49°18' W 123°07'0 0.0
2017-Dec-12 21:00N 49°18' W 123°07'0 0.0
2017-Dec-12 20:30N 49°18' W 123°07'0 0.0
2017-Dec-12 20:00N 49°18' W 123°07'0 0.0
2017-Dec-12 19:30N 49°18' W 123°07'4 7.6
2017-Dec-12 19:00N 49°18' W 123°01'2 3.4
2017-Dec-12 18:28N 49°17' W 122°58'0 0.0
2017-Dec-12 18:00N 49°17' W 122°58'0 0.0
2017-Dec-12 17:30N 49°17' W 122°58'0 0.0
2017-Dec-12 17:00N 49°17' W 122°58'0 0.0
2017-Dec-12 16:30N 49°17' W 122°58'0 0.0
2017-Dec-12 16:00N 49°17' W 122°58'0 0.0
2017-Dec-12 15:30N 49°17' W 122°58'1 2.4
2017-Dec-12 15:00N 49°18' W 123°00'1 2.0
2017-Dec-12 14:31N 49°18' W 122°59'0 0.4
2017-Dec-12 14:00N 49°17' W 122°58'0 0.0
2017-Dec-12 13:30N 49°17' W 122°58'0 0.0
2017-Dec-12 13:00N 49°17' W 122°58'0 0.0
2017-Dec-12 12:30N 49°17' W 122°58'0 0.0
2017-Dec-12 12:00N 49°17' W 122°58'0 0.0
2017-Dec-12 11:30N 49°17' W 122°58'0 0.0
2017-Dec-12 11:00N 49°17' W 122°58'0 0.0
2017-Dec-12 10:30N 49°17' W 122°58'0 0.0
2017-Dec-12 10:00N 49°17' W 122°58'0 0.0
2017-Dec-12 09:30N 49°17' W 122°58'0 0.0
2017-Dec-12 09:00N 49°17' W 122°58'0 0.0
2017-Dec-12 08:29N 49°17' W 122°58'0 0.0
2017-Dec-12 08:00N 49°17' W 122°58'  
2017-Dec-08 12:26N 49°17' W 122°58'0 0.0
2017-Dec-08 12:00N 49°17' W 122°58'0 0.3
2017-Dec-08 11:31N 49°18' W 122°58'2 3.7
2017-Dec-08 11:01N 49°18' W 123°01'2 4.6
2017-Dec-08 10:31N 49°18' W 123°05'2 4.8
2017-Dec-08 10:01N 49°19' W 123°08'1 2.8
2017-Dec-08 09:30N 49°19' W 123°10'1 2.4
2017-Dec-08 08:59N 49°19' W 123°12'1 2.6
2017-Dec-08 08:31N 49°19' W 123°14'2 3.3
2017-Dec-08 08:00N 49°18' W 123°16'2 4.8
2017-Dec-08 07:30N 49°16' W 123°18'2 3.6
2017-Dec-08 07:00N 49°14' W 123°19'2 4.1
2017-Dec-08 06:30N 49°12' W 123°19'2 4.1
2017-Dec-08 06:01N 49°10' W 123°19'2 3.8
2017-Dec-08 05:30N 49°08' W 123°20'2 3.9
2017-Dec-08 05:00N 49°06' W 123°20'2 3.5
2017-Dec-08 04:29N 49°04' W 123°20'2 3.1
2017-Dec-08 03:58N 49°03' W 123°18'2 2.9
2017-Dec-08 03:23N 49°02' W 123°16'1 3.4
2017-Dec-08 02:59N 49°01' W 123°15'2 3.6
2017-Dec-08 02:29N 48°60' W 123°13'4 7.4
2017-Dec-08 02:00N 48°57' W 123°09'5 8.3
2017-Dec-08 01:23N 48°54' W 123°03'3 8.3
2017-Dec-08 00:59N 48°52' W 122°59'12 6.7
2017-Dec-07 23:15N 48°44' W 122°45'2 7.5
2017-Dec-07 23:00N 48°43' W 122°44'3 6.3
2017-Dec-07 22:30N 48°40' W 122°43'3 6.1
2017-Dec-07 22:01N 48°37' W 122°45'3 5.3
2017-Dec-07 21:30N 48°34' W 122°45'3 5.1
2017-Dec-07 21:00N 48°32' W 122°45'3 5.5
2017-Dec-07 20:30N 48°29' W 122°44'3 6.1
2017-Dec-07 20:01N 48°26' W 122°44'4 7.1
2017-Dec-07 19:29N 48°22' W 122°44'4 7.1
2017-Dec-07 18:59N 48°19' W 122°46'21 7.1
2017-Dec-07 16:05N 47°60' W 122°36'1 7.5
2017-Dec-07 15:59N 47°59' W 122°35'4 7.9
2017-Dec-07 15:30N 47°56' W 122°31'3 6.4
2017-Dec-07 15:01N 47°54' W 122°28'3 6.6
2017-Dec-07 14:31N 47°50' W 122°27'4 7.4
2017-Dec-07 14:01N 47°47' W 122°26'3 6.5
2017-Dec-07 13:31N 47°44' W 122°26'3 6.8
2017-Dec-07 13:01N 47°40' W 122°27'3 7.0
2017-Dec-07 12:31N 47°37' W 122°24'3 5.7
2017-Dec-07 12:00N 47°35' W 122°21'0 0.1
2017-Dec-07 11:31N 47°35' W 122°21'0 0.0
2017-Dec-07 11:00N 47°35' W 122°21'0 0.0
2017-Dec-07 10:30N 47°35' W 122°21'0 0.0
2017-Dec-07 10:00N 47°35' W 122°21'0 0.0
2017-Dec-07 09:31N 47°35' W 122°21'0 0.0
2017-Dec-07 09:00N 47°35' W 122°21'0 0.0
2017-Dec-07 08:31N 47°35' W 122°21'0 0.0
2017-Dec-07 08:01N 47°35' W 122°21'0 0.0
2017-Dec-07 07:30N 47°35' W 122°21'0 0.0
2017-Dec-07 07:00N 47°35' W 122°21'0 0.0
2017-Dec-07 06:30N 47°35' W 122°21'0 0.0
2017-Dec-07 06:00N 47°35' W 122°21'0 0.0
2017-Dec-07 05:31N 47°35' W 122°21'0 0.0
2017-Dec-07 05:00N 47°35' W 122°21'0 0.0
2017-Dec-07 04:31N 47°35' W 122°21'0 0.0
2017-Dec-07 04:00N 47°35' W 122°21'0 0.0
2017-Dec-07 03:30N 47°35' W 122°21'0 0.0
2017-Dec-07 03:01N 47°35' W 122°21'0 0.0
2017-Dec-07 02:30N 47°35' W 122°21'0 0.0
2017-Dec-07 02:00N 47°35' W 122°21'0 0.0
2017-Dec-07 01:31N 47°35' W 122°21'0 0.0
2017-Dec-07 01:00N 47°35' W 122°21'1 2.3
2017-Dec-07 00:31N 47°36' W 122°22'2 4.8
2017-Dec-07 00:00N 47°38' W 122°25'3 7.0
2017-Dec-06 23:30N 47°40' W 122°28'4 7.8
2017-Dec-06 23:00N 47°44' W 122°27'4 7.4
2017-Dec-06 22:30N 47°48' W 122°27'3 7.0
2017-Dec-06 22:00N 47°51' W 122°29'3 6.9
2017-Dec-06 21:30N 47°55' W 122°30'3 6.0
2017-Dec-06 21:00N 47°57' W 122°33'  
Track history (hours):
 
Tides and Currents Weather Stations Pressure Air Temp Water Temp Dewpoint Dewpoint Depression Visibility Wind Speed Wind Dir Waves Ship Positions

Island Tugger

Last reported at 2017-Dec-15 17:37 UTC. Time now 2017-Dec-16 18:59 UTC.
Position N 49°17' W 122°58'.

Length 32 m; draft 4.3 m.

Type: Tug. MMSI: 316015269.

Date/timePositionNaut miles runAvg speedWind from/ knotsBaromVisibWave heightAir tempDewpointWater temp
2017-Dec-15 17:37N 49°17' W 122°58'0 0.1
2017-Dec-15 17:30N 49°17' W 122°58'0 0.0
2017-Dec-15 17:00N 49°17' W 122°58'0 0.0
2017-Dec-15 16:30N 49°17' W 122°58'0 0.0
2017-Dec-15 16:00N 49°17' W 122°58'0 0.1
2017-Dec-15 15:31N 49°17' W 122°58'1 1.0
2017-Dec-15 15:00N 49°18' W 122°59'3 5.8
2017-Dec-15 14:30N 49°18' W 123°03'4 7.4
2017-Dec-15 14:00N 49°19' W 123°09'3 6.0
2017-Dec-15 13:30N 49°19' W 123°13'2 3.6
2017-Dec-15 13:00N 49°18' W 123°16'2 3.6
2017-Dec-15 12:30N 49°17' W 123°18'2 4.6
2017-Dec-15 12:00N 49°14' W 123°18'4 7.1
2017-Dec-15 11:30N 49°11' W 123°19'3 6.9
2017-Dec-15 11:00N 49°07' W 123°20'4 6.6
2017-Dec-15 10:25N 49°04' W 123°19'3 8.1
2017-Dec-15 10:00N 49°01' W 123°15'4 8.1
2017-Dec-15 09:29N 48°59' W 123°10'7 7.7
2017-Dec-15 08:36N 48°54' W 123°03'1 8.0
2017-Dec-15 08:26N 48°53' W 123°01'12 7.8
2017-Dec-15 06:50N 48°46' W 122°46'3 7.5
2017-Dec-15 06:29N 48°43' W 122°44'3 7.2
2017-Dec-15 06:00N 48°40' W 122°42'3 6.3
2017-Dec-15 05:29N 48°37' W 122°45'3 5.4
2017-Dec-15 05:00N 48°35' W 122°45'2 4.6
2017-Dec-15 04:30N 48°32' W 122°45'2 4.6
2017-Dec-15 04:00N 48°30' W 122°44'7 4.5
2017-Dec-15 02:30N 48°23' W 122°44'55 6.9
2017-Dec-14 18:31N 47°30' W 122°25'3 6.8
2017-Dec-14 18:00N 47°27' W 122°23'4 7.1
2017-Dec-14 17:30N 47°24' W 122°21'3 6.3
2017-Dec-14 17:00N 47°21' W 122°24'4 7.1
2017-Dec-14 16:30N 47°18' W 122°27'2 0.2
2017-Dec-14 05:24N 47°17' W 122°25'1 2.3
2017-Dec-14 05:00N 47°17' W 122°26'0 0.9
2017-Dec-14 04:30N 47°17' W 122°27'0 0.5
2017-Dec-14 04:00N 47°17' W 122°27'0 0.4
2017-Dec-14 03:30N 47°17' W 122°27'0 0.3
2017-Dec-14 03:00N 47°17' W 122°28'0 0.3
2017-Dec-14 02:30N 47°17' W 122°28'0 0.4
2017-Dec-14 02:00N 47°17' W 122°28'0 0.4
2017-Dec-14 01:30N 47°18' W 122°28'0 1.0
2017-Dec-14 01:00N 47°18' W 122°28'2 4.5
2017-Dec-14 00:30N 47°20' W 122°27'3 6.7
2017-Dec-14 00:00N 47°22' W 122°23'3 5.2
2017-Dec-13 23:30N 47°25' W 122°23'3 6.7
2017-Dec-13 23:00N 47°28' W 122°25'3 6.6
2017-Dec-13 22:30N 47°31' W 122°26'3 6.9
2017-Dec-13 22:00N 47°34' W 122°28'3 6.8
2017-Dec-13 21:30N 47°38' W 122°28'3 6.9
2017-Dec-13 21:00N 47°41' W 122°28'4 7.1
2017-Dec-13 20:30N 47°45' W 122°27'3 7.0
2017-Dec-13 20:00N 47°48' W 122°28'3 6.6
2017-Dec-13 19:30N 47°51' W 122°29'3 6.7
2017-Dec-13 19:00N 47°55' W 122°30'4 7.6
2017-Dec-13 18:30N 47°57' W 122°35'16 8.4
2017-Dec-13 16:39N 48°10' W 122°47'2 8.3
2017-Dec-13 16:23N 48°12' W 122°49'3 7.4
2017-Dec-13 15:59N 48°15' W 122°49'4 8.0
2017-Dec-13 15:29N 48°19' W 122°47'4 7.9
2017-Dec-13 14:55N 48°23' W 122°45'3 7.9
2017-Dec-13 14:30N 48°27' W 122°45'4 8.4
2017-Dec-13 14:00N 48°31' W 122°45'4 8.7
2017-Dec-13 13:30N 48°35' W 122°45'4 8.3
2017-Dec-13 13:00N 48°39' W 122°44'4 7.9
2017-Dec-13 12:30N 48°43' W 122°45'4 7.6
2017-Dec-13 11:59N 48°46' W 122°50'4 7.7
2017-Dec-13 11:30N 48°48' W 122°54'4 7.5
2017-Dec-13 10:59N 48°50' W 122°59'4 6.9
2017-Dec-13 10:28N 48°52' W 123°04'4 7.7
2017-Dec-13 09:59N 48°54' W 123°08'4 7.8
2017-Dec-13 09:28N 48°57' W 123°12'4 7.5
2017-Dec-13 09:00N 48°59' W 123°17'4 7.2
2017-Dec-13 08:30N 49°01' W 123°21'4 7.1
2017-Dec-13 08:00N 49°04' W 123°24'4 7.8
2017-Dec-13 07:29N 49°08' W 123°23'4 7.9
2017-Dec-13 07:00N 49°12' W 123°22'4 7.6
2017-Dec-13 06:30N 49°15' W 123°21'3 6.9
2017-Dec-13 06:00N 49°18' W 123°18'4 7.6
2017-Dec-13 05:30N 49°19' W 123°12'4 7.1
2017-Dec-13 05:00N 49°18' W 123°07'4 8.1
2017-Dec-13 04:30N 49°18' W 123°00'0 0.3
2017-Dec-13 04:00N 49°18' W 123°00'1 2.3
2017-Dec-13 03:29N 49°17' W 122°58'0 0.0
2017-Dec-13 03:00N 49°17' W 122°58'0 0.0
2017-Dec-13 02:30N 49°17' W 122°58'0 0.0
2017-Dec-13 02:00N 49°17' W 122°58'0 0.0
2017-Dec-13 01:30N 49°17' W 122°58'0 0.0
2017-Dec-13 00:59N 49°17' W 122°58'0 0.0
2017-Dec-13 00:29N 49°17' W 122°58'2 3.6
2017-Dec-13 00:00N 49°18' W 123°01'4 7.9
2017-Dec-12 23:30N 49°18' W 123°07'0 0.0
2017-Dec-12 23:00N 49°18' W 123°07'0 0.0
2017-Dec-12 22:30N 49°18' W 123°07'0 0.0
2017-Dec-12 22:00N 49°18' W 123°07'0 0.0
2017-Dec-12 21:30N 49°18' W 123°07'0 0.0
2017-Dec-12 21:00N 49°18' W 123°07'0 0.0
2017-Dec-12 20:30N 49°18' W 123°07'0 0.0
2017-Dec-12 20:00N 49°18' W 123°07'0 0.0
2017-Dec-12 19:30N 49°18' W 123°07'4 7.6
2017-Dec-12 19:00N 49°18' W 123°01'2 3.4
2017-Dec-12 18:28N 49°17' W 122°58'0 0.0
2017-Dec-12 18:00N 49°17' W 122°58'0 0.0
2017-Dec-12 17:30N 49°17' W 122°58'0 0.0
2017-Dec-12 17:00N 49°17' W 122°58'0 0.0
2017-Dec-12 16:30N 49°17' W 122°58'0 0.0
2017-Dec-12 16:00N 49°17' W 122°58'0 0.0
2017-Dec-12 15:30N 49°17' W 122°58'1 2.4
2017-Dec-12 15:00N 49°18' W 123°00'1 2.0
2017-Dec-12 14:31N 49°18' W 122°59'0 0.4
2017-Dec-12 14:00N 49°17' W 122°58'0 0.0
2017-Dec-12 13:30N 49°17' W 122°58'0 0.0
2017-Dec-12 13:00N 49°17' W 122°58'0 0.0
2017-Dec-12 12:30N 49°17' W 122°58'0 0.0
2017-Dec-12 12:00N 49°17' W 122°58'0 0.0
2017-Dec-12 11:30N 49°17' W 122°58'0 0.0
2017-Dec-12 11:00N 49°17' W 122°58'0 0.0
2017-Dec-12 10:30N 49°17' W 122°58'0 0.0
2017-Dec-12 10:00N 49°17' W 122°58'0 0.0
2017-Dec-12 09:30N 49°17' W 122°58'0 0.0
2017-Dec-12 09:00N 49°17' W 122°58'0 0.0
2017-Dec-12 08:29N 49°17' W 122°58'0 0.0
2017-Dec-12 08:00N 49°17' W 122°58'  
2017-Dec-08 12:26N 49°17' W 122°58'0 0.0
2017-Dec-08 12:00N 49°17' W 122°58'0 0.3
2017-Dec-08 11:31N 49°18' W 122°58'2 3.7
2017-Dec-08 11:01N 49°18' W 123°01'2 4.6
2017-Dec-08 10:31N 49°18' W 123°05'2 4.8
2017-Dec-08 10:01N 49°19' W 123°08'1 2.8
2017-Dec-08 09:30N 49°19' W 123°10'1 2.4
2017-Dec-08 08:59N 49°19' W 123°12'1 2.6
2017-Dec-08 08:31N 49°19' W 123°14'2 3.3
2017-Dec-08 08:00N 49°18' W 123°16'2 4.8
2017-Dec-08 07:30N 49°16' W 123°18'2 3.6
2017-Dec-08 07:00N 49°14' W 123°19'2 4.1
2017-Dec-08 06:30N 49°12' W 123°19'2 4.1
2017-Dec-08 06:01N 49°10' W 123°19'2 3.8
2017-Dec-08 05:30N 49°08' W 123°20'2 3.9
2017-Dec-08 05:00N 49°06' W 123°20'2 3.5
2017-Dec-08 04:29N 49°04' W 123°20'2 3.1
2017-Dec-08 03:58N 49°03' W 123°18'2 2.9
2017-Dec-08 03:23N 49°02' W 123°16'1 3.4
2017-Dec-08 02:59N 49°01' W 123°15'2 3.6
2017-Dec-08 02:29N 48°60' W 123°13'4 7.4
2017-Dec-08 02:00N 48°57' W 123°09'5 8.3
2017-Dec-08 01:23N 48°54' W 123°03'3 8.3
2017-Dec-08 00:59N 48°52' W 122°59'12 6.7
2017-Dec-07 23:15N 48°44' W 122°45'2 7.5
2017-Dec-07 23:00N 48°43' W 122°44'3 6.3
2017-Dec-07 22:30N 48°40' W 122°43'3 6.1
2017-Dec-07 22:01N 48°37' W 122°45'3 5.3
2017-Dec-07 21:30N 48°34' W 122°45'3 5.1
2017-Dec-07 21:00N 48°32' W 122°45'3 5.5
2017-Dec-07 20:30N 48°29' W 122°44'3 6.1
2017-Dec-07 20:01N 48°26' W 122°44'4 7.1
2017-Dec-07 19:29N 48°22' W 122°44'4 7.1
2017-Dec-07 18:59N 48°19' W 122°46'21 7.1
2017-Dec-07 16:05N 47°60' W 122°36'1 7.5
2017-Dec-07 15:59N 47°59' W 122°35'4 7.9
2017-Dec-07 15:30N 47°56' W 122°31'3 6.4
2017-Dec-07 15:01N 47°54' W 122°28'3 6.6
2017-Dec-07 14:31N 47°50' W 122°27'4 7.4
2017-Dec-07 14:01N 47°47' W 122°26'3 6.5
2017-Dec-07 13:31N 47°44' W 122°26'3 6.8
2017-Dec-07 13:01N 47°40' W 122°27'3 7.0
2017-Dec-07 12:31N 47°37' W 122°24'3 5.7
2017-Dec-07 12:00N 47°35' W 122°21'0 0.1
2017-Dec-07 11:31N 47°35' W 122°21'0 0.0
2017-Dec-07 11:00N 47°35' W 122°21'0 0.0
2017-Dec-07 10:30N 47°35' W 122°21'0 0.0
2017-Dec-07 10:00N 47°35' W 122°21'0 0.0
2017-Dec-07 09:31N 47°35' W 122°21'0 0.0
2017-Dec-07 09:00N 47°35' W 122°21'0 0.0
2017-Dec-07 08:31N 47°35' W 122°21'0 0.0
2017-Dec-07 08:01N 47°35' W 122°21'0 0.0
2017-Dec-07 07:30N 47°35' W 122°21'0 0.0
2017-Dec-07 07:00N 47°35' W 122°21'0 0.0
2017-Dec-07 06:30N 47°35' W 122°21'0 0.0
2017-Dec-07 06:00N 47°35' W 122°21'0 0.0
2017-Dec-07 05:31N 47°35' W 122°21'0 0.0
2017-Dec-07 05:00N 47°35' W 122°21'0 0.0
2017-Dec-07 04:31N 47°35' W 122°21'0 0.0
2017-Dec-07 04:00N 47°35' W 122°21'0 0.0
2017-Dec-07 03:30N 47°35' W 122°21'0 0.0
2017-Dec-07 03:01N 47°35' W 122°21'0 0.0
2017-Dec-07 02:30N 47°35' W 122°21'0 0.0
2017-Dec-07 02:00N 47°35' W 122°21'0 0.0
2017-Dec-07 01:31N 47°35' W 122°21'0 0.0
2017-Dec-07 01:00N 47°35' W 122°21'1 2.3
2017-Dec-07 00:31N 47°36' W 122°22'2 4.8
2017-Dec-07 00:00N 47°38' W 122°25'3 7.0
2017-Dec-06 23:30N 47°40' W 122°28'4 7.8
2017-Dec-06 23:00N 47°44' W 122°27'4 7.4
2017-Dec-06 22:30N 47°48' W 122°27'3 7.0
2017-Dec-06 22:00N 47°51' W 122°29'3 6.9
2017-Dec-06 21:30N 47°55' W 122°30'3 6.0
2017-Dec-06 21:00N 47°57' W 122°33'  

Dump ship's entire track history